sensor_id;sensor_type;location;lat;lon;timestamp;P1;P2;P0
44350;PMS5003;62766;62.622;17.912;2023-06-26T00:02:19;7;7;
44350;PMS5003;62766;62.622;17.912;2023-06-26T00:04:47;4;4;
44350;PMS5003;62766;62.622;17.912;2023-06-26T00:07:16;5;5;
44350;PMS5003;62766;62.622;17.912;2023-06-26T00:09:44;5;5;
44350;PMS5003;62766;62.622;17.912;2023-06-26T00:12:12;5;5;
44350;PMS5003;62766;62.622;17.912;2023-06-26T00:14:40;5;5;
44350;PMS5003;62766;62.622;17.912;2023-06-26T00:17:08;3;3;
44350;PMS5003;62766;62.622;17.912;2023-06-26T00:19:37;5;5;
44350;PMS5003;62766;62.622;17.912;2023-06-26T00:22:05;6;6;
44350;PMS5003;62766;62.622;17.912;2023-06-26T00:24:33;5;5;
44350;PMS5003;62766;62.622;17.912;2023-06-26T00:27:01;4;4;
44350;PMS5003;62766;62.622;17.912;2023-06-26T00:29:29;5;5;
44350;PMS5003;62766;62.622;17.912;2023-06-26T00:31:58;7;7;
44350;PMS5003;62766;62.622;17.912;2023-06-26T00:34:26;6;5;
44350;PMS5003;62766;62.622;17.912;2023-06-26T00:36:54;6;6;
44350;PMS5003;62766;62.622;17.912;2023-06-26T00:39:22;4;4;
44350;PMS5003;62766;62.622;17.912;2023-06-26T00:41:51;5;5;
44350;PMS5003;62766;62.622;17.912;2023-06-26T00:44:20;4;4;
44350;PMS5003;62766;62.622;17.912;2023-06-26T00:46:49;5;5;
44350;PMS5003;62766;62.622;17.912;2023-06-26T00:49:19;4;4;
44350;PMS5003;62766;62.622;17.912;2023-06-26T00:51:47;4;4;
44350;PMS5003;62766;62.622;17.912;2023-06-26T00:54:17;6;5;
44350;PMS5003;62766;62.622;17.912;2023-06-26T00:56:45;7;7;
44350;PMS5003;62766;62.622;17.912;2023-06-26T00:59:13;6;6;
44350;PMS5003;62766;62.622;17.912;2023-06-26T01:01:43;4;4;
44350;PMS5003;62766;62.622;17.912;2023-06-26T01:04:12;5;5;
44350;PMS5003;62766;62.622;17.912;2023-06-26T01:06:40;5;5;
44350;PMS5003;62766;62.622;17.912;2023-06-26T01:09:08;5;5;
44350;PMS5003;62766;62.622;17.912;2023-06-26T01:11:36;5;5;
44350;PMS5003;62766;62.622;17.912;2023-06-26T01:14:05;5;5;
44350;PMS5003;62766;62.622;17.912;2023-06-26T01:16:33;3;3;
44350;PMS5003;62766;62.622;17.912;2023-06-26T01:19:03;5;5;
44350;PMS5003;62766;62.622;17.912;2023-06-26T01:21:36;6;6;
44350;PMS5003;62766;62.622;17.912;2023-06-26T01:24:14;6;6;
44350;PMS5003;62766;62.622;17.912;2023-06-26T01:26:45;6;6;
44350;PMS5003;62766;62.622;17.912;2023-06-26T01:29:15;7;7;
44350;PMS5003;62766;62.622;17.912;2023-06-26T01:31:45;4;4;
44350;PMS5003;62766;62.622;17.912;2023-06-26T01:34:15;5;4;
44350;PMS5003;62766;62.622;17.912;2023-06-26T01:36:45;5;5;
44350;PMS5003;62766;62.622;17.912;2023-06-26T01:39:15;6;5;
44350;PMS5003;62766;62.622;17.912;2023-06-26T01:41:48;5;5;
44350;PMS5003;62766;62.622;17.912;2023-06-26T01:44:18;4;4;
44350;PMS5003;62766;62.622;17.912;2023-06-26T01:46:58;5;5;
44350;PMS5003;62766;62.622;17.912;2023-06-26T01:49:31;6;6;
44350;PMS5003;62766;62.622;17.912;2023-06-26T01:52:07;6;6;
44350;PMS5003;62766;62.622;17.912;2023-06-26T01:54:50;4;4;
44350;PMS5003;62766;62.622;17.912;2023-06-26T01:57:24;6;6;
44350;PMS5003;62766;62.622;17.912;2023-06-26T01:59:54;7;7;
44350;PMS5003;62766;62.622;17.912;2023-06-26T02:02:24;8;8;
44350;PMS5003;62766;62.622;17.912;2023-06-26T02:04:52;6;6;
44350;PMS5003;62766;62.622;17.912;2023-06-26T02:07:21;7;7;
44350;PMS5003;62766;62.622;17.912;2023-06-26T02:09:49;5;5;
44350;PMS5003;62766;62.622;17.912;2023-06-26T02:12:19;7;7;
44350;PMS5003;62766;62.622;17.912;2023-06-26T02:14:47;5;5;
44350;PMS5003;62766;62.622;17.912;2023-06-26T02:17:15;9;9;
44350;PMS5003;62766;62.622;17.912;2023-06-26T02:19:43;5;5;
44350;PMS5003;62766;62.622;17.912;2023-06-26T02:22:12;9;9;
44350;PMS5003;62766;62.622;17.912;2023-06-26T02:24:42;6;6;
44350;PMS5003;62766;62.622;17.912;2023-06-26T02:27:10;6;6;
44350;PMS5003;62766;62.622;17.912;2023-06-26T02:29:39;7;7;
44350;PMS5003;62766;62.622;17.912;2023-06-26T02:32:08;7;7;
44350;PMS5003;62766;62.622;17.912;2023-06-26T02:34:37;7;7;
44350;PMS5003;62766;62.622;17.912;2023-06-26T02:37:05;7;7;
44350;PMS5003;62766;62.622;17.912;2023-06-26T02:39:33;7;7;
44350;PMS5003;62766;62.622;17.912;2023-06-26T02:42:01;8;8;
44350;PMS5003;62766;62.622;17.912;2023-06-26T02:44:29;8;8;
44350;PMS5003;62766;62.622;17.912;2023-06-26T02:46:58;7;7;
44350;PMS5003;62766;62.622;17.912;2023-06-26T02:49:26;8;8;
44350;PMS5003;62766;62.622;17.912;2023-06-26T02:51:55;10;9;
44350;PMS5003;62766;62.622;17.912;2023-06-26T02:54:23;6;6;
44350;PMS5003;62766;62.622;17.912;2023-06-26T02:56:51;6;6;
44350;PMS5003;62766;62.622;17.912;2023-06-26T02:59:21;7;7;
44350;PMS5003;62766;62.622;17.912;2023-06-26T03:01:49;7;6;
44350;PMS5003;62766;62.622;17.912;2023-06-26T03:04:19;8;8;
44350;PMS5003;62766;62.622;17.912;2023-06-26T03:06:47;6;6;
44350;PMS5003;62766;62.622;17.912;2023-06-26T03:09:15;8;8;
44350;PMS5003;62766;62.622;17.912;2023-06-26T03:11:43;9;6;
44350;PMS5003;62766;62.622;17.912;2023-06-26T03:14:12;7;7;
44350;PMS5003;62766;62.622;17.912;2023-06-26T03:16:40;9;9;
44350;PMS5003;62766;62.622;17.912;2023-06-26T03:19:10;7;7;
44350;PMS5003;62766;62.622;17.912;2023-06-26T03:21:38;6;6;
44350;PMS5003;62766;62.622;17.912;2023-06-26T03:24:06;11;9;
44350;PMS5003;62766;62.622;17.912;2023-06-26T03:26:34;8;8;
44350;PMS5003;62766;62.622;17.912;2023-06-26T03:29:03;9;8;
44350;PMS5003;62766;62.622;17.912;2023-06-26T03:31:31;8;8;
44350;PMS5003;62766;62.622;17.912;2023-06-26T03:33:59;9;7;
44350;PMS5003;62766;62.622;17.912;2023-06-26T03:36:27;8;8;
44350;PMS5003;62766;62.622;17.912;2023-06-26T03:38:55;8;8;
44350;PMS5003;62766;62.622;17.912;2023-06-26T03:41:24;8;8;
44350;PMS5003;62766;62.622;17.912;2023-06-26T03:43:52;7;7;
44350;PMS5003;62766;62.622;17.912;2023-06-26T03:46:21;8;8;
44350;PMS5003;62766;62.622;17.912;2023-06-26T03:48:49;6;6;
44350;PMS5003;62766;62.622;17.912;2023-06-26T03:51:17;6;6;
44350;PMS5003;62766;62.622;17.912;2023-06-26T03:53:45;7;7;
44350;PMS5003;62766;62.622;17.912;2023-06-26T03:56:14;7;7;
44350;PMS5003;62766;62.622;17.912;2023-06-26T03:58:42;6;6;
44350;PMS5003;62766;62.622;17.912;2023-06-26T04:03:28;9;9;
44350;PMS5003;62766;62.622;17.912;2023-06-26T04:05:57;10;10;
44350;PMS5003;62766;62.622;17.912;2023-06-26T04:08:26;9;9;
44350;PMS5003;62766;62.622;17.912;2023-06-26T04:10:54;9;9;
44350;PMS5003;62766;62.622;17.912;2023-06-26T04:13:23;8;8;
44350;PMS5003;62766;62.622;17.912;2023-06-26T04:15:51;9;9;
44350;PMS5003;62766;62.622;17.912;2023-06-26T04:18:19;12;11;
44350;PMS5003;62766;62.622;17.912;2023-06-26T04:21:04;11;10;
44350;PMS5003;62766;62.622;17.912;2023-06-26T04:23:34;8;8;
44350;PMS5003;62766;62.622;17.912;2023-06-26T04:26:04;11;11;
44350;PMS5003;62766;62.622;17.912;2023-06-26T04:28:34;10;10;
44350;PMS5003;62766;62.622;17.912;2023-06-26T04:31:02;8;8;
44350;PMS5003;62766;62.622;17.912;2023-06-26T04:33:30;12;12;
44350;PMS5003;62766;62.622;17.912;2023-06-26T04:35:58;11;11;
44350;PMS5003;62766;62.622;17.912;2023-06-26T04:38:26;12;11;
44350;PMS5003;62766;62.622;17.912;2023-06-26T04:40:55;20;20;
44350;PMS5003;62766;62.622;17.912;2023-06-26T04:43:23;13;13;
44350;PMS5003;62766;62.622;17.912;2023-06-26T04:45:51;12;12;
44350;PMS5003;62766;62.622;17.912;2023-06-26T04:48:20;13;12;
44350;PMS5003;62766;62.622;17.912;2023-06-26T04:50:48;13;11;
44350;PMS5003;62766;62.622;17.912;2023-06-26T04:53:16;11;11;
44350;PMS5003;62766;62.622;17.912;2023-06-26T04:55:44;12;12;
44350;PMS5003;62766;62.622;17.912;2023-06-26T04:58:14;10;9;
44350;PMS5003;62766;62.622;17.912;2023-06-26T05:00:43;11;11;
44350;PMS5003;62766;62.622;17.912;2023-06-26T05:03:13;10;10;
44350;PMS5003;62766;62.622;17.912;2023-06-26T05:05:43;13;13;
44350;PMS5003;62766;62.622;17.912;2023-06-26T05:08:15;11;11;
44350;PMS5003;62766;62.622;17.912;2023-06-26T05:10:44;15;15;
44350;PMS5003;62766;62.622;17.912;2023-06-26T05:13:13;15;15;
44350;PMS5003;62766;62.622;17.912;2023-06-26T05:15:42;16;16;
44350;PMS5003;62766;62.622;17.912;2023-06-26T05:18:10;12;12;
44350;PMS5003;62766;62.622;17.912;2023-06-26T05:20:39;14;13;
44350;PMS5003;62766;62.622;17.912;2023-06-26T05:23:08;13;13;
44350;PMS5003;62766;62.622;17.912;2023-06-26T05:25:40;14;14;
44350;PMS5003;62766;62.622;17.912;2023-06-26T05:28:09;14;14;
44350;PMS5003;62766;62.622;17.912;2023-06-26T05:30:39;19;18;
44350;PMS5003;62766;62.622;17.912;2023-06-26T05:33:08;22;22;
44350;PMS5003;62766;62.622;17.912;2023-06-26T05:35:39;17;17;
44350;PMS5003;62766;62.622;17.912;2023-06-26T05:38:09;11;11;
44350;PMS5003;62766;62.622;17.912;2023-06-26T05:40:37;9;9;
44350;PMS5003;62766;62.622;17.912;2023-06-26T05:43:07;10;10;
44350;PMS5003;62766;62.622;17.912;2023-06-26T05:45:36;9;9;
44350;PMS5003;62766;62.622;17.912;2023-06-26T05:48:04;10;10;
44350;PMS5003;62766;62.622;17.912;2023-06-26T05:50:33;8;8;
44350;PMS5003;62766;62.622;17.912;2023-06-26T05:53:03;9;9;
44350;PMS5003;62766;62.622;17.912;2023-06-26T05:55:31;9;9;
44350;PMS5003;62766;62.622;17.912;2023-06-26T05:58:01;8;8;
44350;PMS5003;62766;62.622;17.912;2023-06-26T06:00:30;8;8;
44350;PMS5003;62766;62.622;17.912;2023-06-26T06:03:00;11;11;
44350;PMS5003;62766;62.622;17.912;2023-06-26T06:05:28;11;11;
44350;PMS5003;62766;62.622;17.912;2023-06-26T06:07:56;9;9;
44350;PMS5003;62766;62.622;17.912;2023-06-26T06:10:24;10;10;
44350;PMS5003;62766;62.622;17.912;2023-06-26T06:12:52;11;11;
44350;PMS5003;62766;62.622;17.912;2023-06-26T06:15:21;9;9;
44350;PMS5003;62766;62.622;17.912;2023-06-26T06:17:49;13;12;
44350;PMS5003;62766;62.622;17.912;2023-06-26T06:20:17;9;9;
44350;PMS5003;62766;62.622;17.912;2023-06-26T06:22:45;8;8;
44350;PMS5003;62766;62.622;17.912;2023-06-26T06:25:13;8;8;
44350;PMS5003;62766;62.622;17.912;2023-06-26T06:27:41;9;9;
44350;PMS5003;62766;62.622;17.912;2023-06-26T06:30:10;10;10;
44350;PMS5003;62766;62.622;17.912;2023-06-26T06:32:40;8;8;
44350;PMS5003;62766;62.622;17.912;2023-06-26T06:35:08;8;8;
44350;PMS5003;62766;62.622;17.912;2023-06-26T06:37:37;9;9;
44350;PMS5003;62766;62.622;17.912;2023-06-26T06:40:06;9;9;
44350;PMS5003;62766;62.622;17.912;2023-06-26T06:42:36;10;9;
44350;PMS5003;62766;62.622;17.912;2023-06-26T06:45:06;9;9;
44350;PMS5003;62766;62.622;17.912;2023-06-26T06:47:36;8;8;
44350;PMS5003;62766;62.622;17.912;2023-06-26T06:50:05;7;7;
44350;PMS5003;62766;62.622;17.912;2023-06-26T06:52:36;11;11;
44350;PMS5003;62766;62.622;17.912;2023-06-26T06:55:06;10;8;
44350;PMS5003;62766;62.622;17.912;2023-06-26T06:57:35;11;8;
44350;PMS5003;62766;62.622;17.912;2023-06-26T07:00:05;5;5;
44350;PMS5003;62766;62.622;17.912;2023-06-26T07:02:37;10;10;
44350;PMS5003;62766;62.622;17.912;2023-06-26T07:05:06;8;8;
44350;PMS5003;62766;62.622;17.912;2023-06-26T07:07:35;7;7;
44350;PMS5003;62766;62.622;17.912;2023-06-26T07:10:07;9;8;
44350;PMS5003;62766;62.622;17.912;2023-06-26T07:12:38;11;9;
44350;PMS5003;62766;62.622;17.912;2023-06-26T07:15:07;8;8;
44350;PMS5003;62766;62.622;17.912;2023-06-26T07:17:37;12;10;
44350;PMS5003;62766;62.622;17.912;2023-06-26T07:20:07;12;12;
44350;PMS5003;62766;62.622;17.912;2023-06-26T07:22:37;9;9;
44350;PMS5003;62766;62.622;17.912;2023-06-26T07:25:07;9;9;
44350;PMS5003;62766;62.622;17.912;2023-06-26T07:27:37;11;11;
44350;PMS5003;62766;62.622;17.912;2023-06-26T07:30:06;9;9;
44350;PMS5003;62766;62.622;17.912;2023-06-26T07:32:37;10;8;
44350;PMS5003;62766;62.622;17.912;2023-06-26T07:35:06;9;9;
44350;PMS5003;62766;62.622;17.912;2023-06-26T07:37:35;10;10;
44350;PMS5003;62766;62.622;17.912;2023-06-26T07:40:05;10;10;
44350;PMS5003;62766;62.622;17.912;2023-06-26T07:42:34;9;9;
44350;PMS5003;62766;62.622;17.912;2023-06-26T07:45:03;7;7;
44350;PMS5003;62766;62.622;17.912;2023-06-26T07:47:32;8;8;
44350;PMS5003;62766;62.622;17.912;2023-06-26T07:50:00;7;7;
44350;PMS5003;62766;62.622;17.912;2023-06-26T07:52:28;7;7;
44350;PMS5003;62766;62.622;17.912;2023-06-26T07:54:57;10;10;
44350;PMS5003;62766;62.622;17.912;2023-06-26T07:57:27;10;10;
44350;PMS5003;62766;62.622;17.912;2023-06-26T07:59:55;12;12;
44350;PMS5003;62766;62.622;17.912;2023-06-26T08:02:24;8;8;
44350;PMS5003;62766;62.622;17.912;2023-06-26T08:04:52;9;9;
44350;PMS5003;62766;62.622;17.912;2023-06-26T08:07:20;7;7;
44350;PMS5003;62766;62.622;17.912;2023-06-26T08:09:48;7;7;
44350;PMS5003;62766;62.622;17.912;2023-06-26T08:12:16;7;7;
44350;PMS5003;62766;62.622;17.912;2023-06-26T08:14:44;8;8;
44350;PMS5003;62766;62.622;17.912;2023-06-26T08:17:12;7;7;
44350;PMS5003;62766;62.622;17.912;2023-06-26T08:19:40;7;7;
44350;PMS5003;62766;62.622;17.912;2023-06-26T08:22:08;10;9;
44350;PMS5003;62766;62.622;17.912;2023-06-26T08:24:36;8;8;
44350;PMS5003;62766;62.622;17.912;2023-06-26T08:27:06;10;10;
44350;PMS5003;62766;62.622;17.912;2023-06-26T08:29:35;11;11;
44350;PMS5003;62766;62.622;17.912;2023-06-26T08:32:03;7;7;
44350;PMS5003;62766;62.622;17.912;2023-06-26T08:34:32;9;9;
44350;PMS5003;62766;62.622;17.912;2023-06-26T08:37:00;9;9;
44350;PMS5003;62766;62.622;17.912;2023-06-26T08:39:28;8;8;
44350;PMS5003;62766;62.622;17.912;2023-06-26T08:41:56;6;6;
44350;PMS5003;62766;62.622;17.912;2023-06-26T08:44:24;5;5;
44350;PMS5003;62766;62.622;17.912;2023-06-26T08:46:53;6;6;
44350;PMS5003;62766;62.622;17.912;2023-06-26T08:49:21;6;6;
44350;PMS5003;62766;62.622;17.912;2023-06-26T08:51:57;8;8;
44350;PMS5003;62766;62.622;17.912;2023-06-26T08:54:36;7;7;
44350;PMS5003;62766;62.622;17.912;2023-06-26T08:57:11;6;6;
44350;PMS5003;62766;62.622;17.912;2023-06-26T08:59:42;6;6;
44350;PMS5003;62766;62.622;17.912;2023-06-26T09:02:10;10;7;
44350;PMS5003;62766;62.622;17.912;2023-06-26T09:04:39;8;8;
44350;PMS5003;62766;62.622;17.912;2023-06-26T09:07:08;9;9;
44350;PMS5003;62766;62.622;17.912;2023-06-26T09:09:37;7;7;
44350;PMS5003;62766;62.622;17.912;2023-06-26T09:12:07;8;8;
44350;PMS5003;62766;62.622;17.912;2023-06-26T09:14:36;8;8;
44350;PMS5003;62766;62.622;17.912;2023-06-26T09:17:06;9;8;
44350;PMS5003;62766;62.622;17.912;2023-06-26T09:19:36;9;9;
44350;PMS5003;62766;62.622;17.912;2023-06-26T09:22:10;11;11;
44350;PMS5003;62766;62.622;17.912;2023-06-26T09:24:41;9;9;
44350;PMS5003;62766;62.622;17.912;2023-06-26T09:27:11;8;8;
44350;PMS5003;62766;62.622;17.912;2023-06-26T09:29:39;11;11;
44350;PMS5003;62766;62.622;17.912;2023-06-26T09:32:07;9;9;
44350;PMS5003;62766;62.622;17.912;2023-06-26T09:34:40;10;10;
44350;PMS5003;62766;62.622;17.912;2023-06-26T09:37:11;9;9;
44350;PMS5003;62766;62.622;17.912;2023-06-26T09:39:40;9;9;
44350;PMS5003;62766;62.622;17.912;2023-06-26T09:42:08;8;8;
44350;PMS5003;62766;62.622;17.912;2023-06-26T09:44:36;9;9;
44350;PMS5003;62766;62.622;17.912;2023-06-26T09:47:11;7;7;
44350;PMS5003;62766;62.622;17.912;2023-06-26T09:49:40;11;9;
44350;PMS5003;62766;62.622;17.912;2023-06-26T09:52:09;10;9;
44350;PMS5003;62766;62.622;17.912;2023-06-26T09:54:42;8;8;
44350;PMS5003;62766;62.622;17.912;2023-06-26T09:57:12;9;9;
44350;PMS5003;62766;62.622;17.912;2023-06-26T09:59:42;9;9;
44350;PMS5003;62766;62.622;17.912;2023-06-26T10:03:23;9;9;
44350;PMS5003;62766;62.622;17.912;2023-06-26T10:05:51;10;9;
44350;PMS5003;62766;62.622;17.912;2023-06-26T10:08:21;10;10;
44350;PMS5003;62766;62.622;17.912;2023-06-26T10:10:49;8;8;
44350;PMS5003;62766;62.622;17.912;2023-06-26T10:13:19;10;10;
44350;PMS5003;62766;62.622;17.912;2023-06-26T10:15:52;7;7;
44350;PMS5003;62766;62.622;17.912;2023-06-26T10:18:22;10;10;
44350;PMS5003;62766;62.622;17.912;2023-06-26T10:20:54;10;9;
44350;PMS5003;62766;62.622;17.912;2023-06-26T10:23:25;13;12;
44350;PMS5003;62766;62.622;17.912;2023-06-26T10:25:57;5;5;
44350;PMS5003;62766;62.622;17.912;2023-06-26T10:28:28;9;9;
44350;PMS5003;62766;62.622;17.912;2023-06-26T10:31:00;7;7;
44350;PMS5003;62766;62.622;17.912;2023-06-26T10:33:31;8;8;
44350;PMS5003;62766;62.622;17.912;2023-06-26T10:36:18;9;9;
44350;PMS5003;62766;62.622;17.912;2023-06-26T10:38:48;8;8;
44350;PMS5003;62766;62.622;17.912;2023-06-26T10:41:19;7;7;
44350;PMS5003;62766;62.622;17.912;2023-06-26T10:43:50;7;7;
44350;PMS5003;62766;62.622;17.912;2023-06-26T10:46:18;7;6;
44350;PMS5003;62766;62.622;17.912;2023-06-26T10:48:55;5;5;
44350;PMS5003;62766;62.622;17.912;2023-06-26T10:51:24;8;8;
44350;PMS5003;62766;62.622;17.912;2023-06-26T10:53:54;5;5;
44350;PMS5003;62766;62.622;17.912;2023-06-26T10:56:40;7;6;
44350;PMS5003;62766;62.622;17.912;2023-06-26T10:59:11;6;6;
44350;PMS5003;62766;62.622;17.912;2023-06-26T11:01:43;5;5;
44350;PMS5003;62766;62.622;17.912;2023-06-26T11:04:13;6;6;
44350;PMS5003;62766;62.622;17.912;2023-06-26T11:06:45;7;7;
44350;PMS5003;62766;62.622;17.912;2023-06-26T11:09:15;7;7;
44350;PMS5003;62766;62.622;17.912;2023-06-26T11:11:55;6;6;
44350;PMS5003;62766;62.622;17.912;2023-06-26T11:14:26;5;5;
44350;PMS5003;62766;62.622;17.912;2023-06-26T11:16:56;6;5;
44350;PMS5003;62766;62.622;17.912;2023-06-26T11:19:26;5;5;
44350;PMS5003;62766;62.622;17.912;2023-06-26T11:21:59;2;2;
44350;PMS5003;62766;62.622;17.912;2023-06-26T11:24:30;4;4;
44350;PMS5003;62766;62.622;17.912;2023-06-26T11:27:00;6;6;
44350;PMS5003;62766;62.622;17.912;2023-06-26T11:29:30;2;2;
44350;PMS5003;62766;62.622;17.912;2023-06-26T11:32:02;4;4;
44350;PMS5003;62766;62.622;17.912;2023-06-26T11:34:31;5;5;
44350;PMS5003;62766;62.622;17.912;2023-06-26T11:37:01;7;5;
44350;PMS5003;62766;62.622;17.912;2023-06-26T11:39:29;4;4;
44350;PMS5003;62766;62.622;17.912;2023-06-26T11:41:57;6;6;
44350;PMS5003;62766;62.622;17.912;2023-06-26T11:44:28;5;5;
44350;PMS5003;62766;62.622;17.912;2023-06-26T11:46:58;4;4;
44350;PMS5003;62766;62.622;17.912;2023-06-26T11:49:26;5;5;
44350;PMS5003;62766;62.622;17.912;2023-06-26T11:51:56;5;5;
44350;PMS5003;62766;62.622;17.912;2023-06-26T11:54:24;3;3;
44350;PMS5003;62766;62.622;17.912;2023-06-26T11:56:54;6;6;
44350;PMS5003;62766;62.622;17.912;2023-06-26T11:59:24;3;3;
44350;PMS5003;62766;62.622;17.912;2023-06-26T12:01:58;5;5;
44350;PMS5003;62766;62.622;17.912;2023-06-26T12:04:28;6;6;
44350;PMS5003;62766;62.622;17.912;2023-06-26T12:06:56;5;5;
44350;PMS5003;62766;62.622;17.912;2023-06-26T12:09:24;4;4;
44350;PMS5003;62766;62.622;17.912;2023-06-26T12:11:55;6;6;
44350;PMS5003;62766;62.622;17.912;2023-06-26T12:14:24;6;6;
44350;PMS5003;62766;62.622;17.912;2023-06-26T12:16:54;6;6;
44350;PMS5003;62766;62.622;17.912;2023-06-26T12:19:24;3;3;
44350;PMS5003;62766;62.622;17.912;2023-06-26T12:21:55;4;4;
44350;PMS5003;62766;62.622;17.912;2023-06-26T12:24:24;6;6;
44350;PMS5003;62766;62.622;17.912;2023-06-26T12:26:53;4;4;
44350;PMS5003;62766;62.622;17.912;2023-06-26T12:29:30;6;6;
44350;PMS5003;62766;62.622;17.912;2023-06-26T12:32:00;5;5;
44350;PMS5003;62766;62.622;17.912;2023-06-26T12:34:36;6;6;
44350;PMS5003;62766;62.622;17.912;2023-06-26T12:37:12;6;6;
44350;PMS5003;62766;62.622;17.912;2023-06-26T12:39:45;6;6;
44350;PMS5003;62766;62.622;17.912;2023-06-26T12:42:16;8;8;
44350;PMS5003;62766;62.622;17.912;2023-06-26T12:44:57;7;7;
44350;PMS5003;62766;62.622;17.912;2023-06-26T12:47:25;8;8;
44350;PMS5003;62766;62.622;17.912;2023-06-26T12:49:55;10;10;
44350;PMS5003;62766;62.622;17.912;2023-06-26T12:52:34;11;11;
44350;PMS5003;62766;62.622;17.912;2023-06-26T12:55:02;12;12;
44350;PMS5003;62766;62.622;17.912;2023-06-26T12:57:30;6;6;
44350;PMS5003;62766;62.622;17.912;2023-06-26T12:59:58;8;8;
44350;PMS5003;62766;62.622;17.912;2023-06-26T13:02:26;10;9;
44350;PMS5003;62766;62.622;17.912;2023-06-26T13:04:54;9;9;
44350;PMS5003;62766;62.622;17.912;2023-06-26T13:07:22;9;9;
44350;PMS5003;62766;62.622;17.912;2023-06-26T13:09:50;12;12;
44350;PMS5003;62766;62.622;17.912;2023-06-26T13:12:19;10;10;
44350;PMS5003;62766;62.622;17.912;2023-06-26T13:14:46;10;10;
44350;PMS5003;62766;62.622;17.912;2023-06-26T13:17:15;9;9;
44350;PMS5003;62766;62.622;17.912;2023-06-26T13:19:43;12;11;
44350;PMS5003;62766;62.622;17.912;2023-06-26T13:22:11;10;10;
44350;PMS5003;62766;62.622;17.912;2023-06-26T13:24:39;10;10;
44350;PMS5003;62766;62.622;17.912;2023-06-26T13:27:08;8;8;
44350;PMS5003;62766;62.622;17.912;2023-06-26T13:29:36;8;8;
44350;PMS5003;62766;62.622;17.912;2023-06-26T13:32:05;7;7;
44350;PMS5003;62766;62.622;17.912;2023-06-26T13:34:35;8;8;
44350;PMS5003;62766;62.622;17.912;2023-06-26T13:37:05;5;5;
44350;PMS5003;62766;62.622;17.912;2023-06-26T13:39:34;6;6;
44350;PMS5003;62766;62.622;17.912;2023-06-26T13:42:02;7;7;
44350;PMS5003;62766;62.622;17.912;2023-06-26T13:44:32;8;8;
44350;PMS5003;62766;62.622;17.912;2023-06-26T13:47:00;7;7;
44350;PMS5003;62766;62.622;17.912;2023-06-26T13:49:28;10;10;
44350;PMS5003;62766;62.622;17.912;2023-06-26T13:51:56;8;8;
44350;PMS5003;62766;62.622;17.912;2023-06-26T13:54:24;7;7;
44350;PMS5003;62766;62.622;17.912;2023-06-26T13:56:53;7;7;
44350;PMS5003;62766;62.622;17.912;2023-06-26T13:59:21;9;8;
44350;PMS5003;62766;62.622;17.912;2023-06-26T14:01:49;7;7;
44350;PMS5003;62766;62.622;17.912;2023-06-26T14:04:17;9;9;
44350;PMS5003;62766;62.622;17.912;2023-06-26T14:06:47;6;6;
44350;PMS5003;62766;62.622;17.912;2023-06-26T14:09:15;7;7;
44350;PMS5003;62766;62.622;17.912;2023-06-26T14:11:45;11;10;
44350;PMS5003;62766;62.622;17.912;2023-06-26T14:14:13;10;10;
44350;PMS5003;62766;62.622;17.912;2023-06-26T14:16:41;8;8;
44350;PMS5003;62766;62.622;17.912;2023-06-26T14:19:09;6;6;
44350;PMS5003;62766;62.622;17.912;2023-06-26T14:21:37;8;8;
44350;PMS5003;62766;62.622;17.912;2023-06-26T14:24:05;8;8;
44350;PMS5003;62766;62.622;17.912;2023-06-26T14:26:34;8;8;
44350;PMS5003;62766;62.622;17.912;2023-06-26T14:29:02;8;8;
44350;PMS5003;62766;62.622;17.912;2023-06-26T14:31:31;8;8;
44350;PMS5003;62766;62.622;17.912;2023-06-26T14:34:00;9;9;
44350;PMS5003;62766;62.622;17.912;2023-06-26T14:36:28;8;8;
44350;PMS5003;62766;62.622;17.912;2023-06-26T14:38:56;9;9;
44350;PMS5003;62766;62.622;17.912;2023-06-26T14:41:24;8;8;
44350;PMS5003;62766;62.622;17.912;2023-06-26T14:43:53;9;9;
44350;PMS5003;62766;62.622;17.912;2023-06-26T14:46:21;8;8;
44350;PMS5003;62766;62.622;17.912;2023-06-26T14:48:49;8;8;
44350;PMS5003;62766;62.622;17.912;2023-06-26T14:51:17;9;9;
44350;PMS5003;62766;62.622;17.912;2023-06-26T14:53:47;9;8;
44350;PMS5003;62766;62.622;17.912;2023-06-26T14:56:15;8;8;
44350;PMS5003;62766;62.622;17.912;2023-06-26T14:58:43;8;8;
44350;PMS5003;62766;62.622;17.912;2023-06-26T15:01:11;6;6;
44350;PMS5003;62766;62.622;17.912;2023-06-26T15:03:39;6;6;
44350;PMS5003;62766;62.622;17.912;2023-06-26T15:06:07;8;8;
44350;PMS5003;62766;62.622;17.912;2023-06-26T15:08:35;6;6;
44350;PMS5003;62766;62.622;17.912;2023-06-26T15:11:03;10;10;
44350;PMS5003;62766;62.622;17.912;2023-06-26T15:13:31;8;8;
44350;PMS5003;62766;62.622;17.912;2023-06-26T15:15:59;5;5;
44350;PMS5003;62766;62.622;17.912;2023-06-26T15:18:27;10;10;
44350;PMS5003;62766;62.622;17.912;2023-06-26T15:20:55;8;8;
44350;PMS5003;62766;62.622;17.912;2023-06-26T15:23:23;8;8;
44350;PMS5003;62766;62.622;17.912;2023-06-26T15:25:51;7;7;
44350;PMS5003;62766;62.622;17.912;2023-06-26T15:28:19;8;8;
44350;PMS5003;62766;62.622;17.912;2023-06-26T15:30:47;8;8;
44350;PMS5003;62766;62.622;17.912;2023-06-26T15:33:16;6;6;
44350;PMS5003;62766;62.622;17.912;2023-06-26T15:35:45;7;7;
44350;PMS5003;62766;62.622;17.912;2023-06-26T15:38:13;7;6;
44350;PMS5003;62766;62.622;17.912;2023-06-26T15:40:41;4;4;
44350;PMS5003;62766;62.622;17.912;2023-06-26T15:43:09;8;8;
44350;PMS5003;62766;62.622;17.912;2023-06-26T15:45:37;8;8;
44350;PMS5003;62766;62.622;17.912;2023-06-26T15:48:05;5;5;
44350;PMS5003;62766;62.622;17.912;2023-06-26T15:50:35;7;7;
44350;PMS5003;62766;62.622;17.912;2023-06-26T15:53:04;5;5;
44350;PMS5003;62766;62.622;17.912;2023-06-26T15:55:33;7;7;
44350;PMS5003;62766;62.622;17.912;2023-06-26T15:58:01;7;7;
44350;PMS5003;62766;62.622;17.912;2023-06-26T16:03:43;6;6;
44350;PMS5003;62766;62.622;17.912;2023-06-26T16:06:12;8;8;
44350;PMS5003;62766;62.622;17.912;2023-06-26T16:08:40;6;6;
44350;PMS5003;62766;62.622;17.912;2023-06-26T16:11:08;8;8;
44350;PMS5003;62766;62.622;17.912;2023-06-26T16:13:36;6;6;
44350;PMS5003;62766;62.622;17.912;2023-06-26T16:16:04;5;5;
44350;PMS5003;62766;62.622;17.912;2023-06-26T16:18:32;8;8;
44350;PMS5003;62766;62.622;17.912;2023-06-26T16:21:00;7;6;
44350;PMS5003;62766;62.622;17.912;2023-06-26T16:23:28;7;7;
44350;PMS5003;62766;62.622;17.912;2023-06-26T16:25:56;7;7;
44350;PMS5003;62766;62.622;17.912;2023-06-26T16:28:24;7;7;
44350;PMS5003;62766;62.622;17.912;2023-06-26T16:30:53;9;8;
44350;PMS5003;62766;62.622;17.912;2023-06-26T16:33:22;7;7;
44350;PMS5003;62766;62.622;17.912;2023-06-26T16:35:50;9;9;
44350;PMS5003;62766;62.622;17.912;2023-06-26T16:38:18;9;8;
44350;PMS5003;62766;62.622;17.912;2023-06-26T16:40:46;7;7;
44350;PMS5003;62766;62.622;17.912;2023-06-26T16:43:14;8;7;
44350;PMS5003;62766;62.622;17.912;2023-06-26T16:45:43;7;7;
44350;PMS5003;62766;62.622;17.912;2023-06-26T16:48:11;9;9;
44350;PMS5003;62766;62.622;17.912;2023-06-26T16:50:39;8;8;